NCAR-RAP Real-Time Weather Data

Output produced by METARs form (08 May 2021  17:10 UTC)
found at http://weather.rap.ucar.edu/surface/
 
KMOB 081656Z 12008KT 090V160 10SM FEW250 25/14 A3015 RMK AO2 SLP206 T02500139
KMOB 081556Z 14009KT 10SM FEW250 24/13 A3016 RMK AO2 SLP209 T02440128
KMOB 081456Z 17007KT 10SM FEW250 23/13 A3017 RMK AO2 SLP213 T02280128 51012
KMOB 081356Z 14007KT 10SM FEW250 22/12 A3016 RMK AO2 SLP211 T02170122
KMOB 081256Z 12007KT 10SM FEW250 19/12 A3015 RMK AO2 SLP208 T01890117
KMOB 081156Z VRB04KT 10SM FEW250 15/11 A3013 RMK AO2 SLP201 T01500111 10150 20128 53013
KMOB 081056Z 09003KT 10SM FEW060 FEW200 14/09 A3012 RMK AO2 SLP195 T01390094
KMOB 080956Z AUTO 00000KT 10SM CLR 14/09 A3011 RMK AO2 SLP192 T01390094
KMOB 080856Z AUTO 00000KT 10SM CLR 14/09 A3010 RMK AO2 SLP189 T01390094 55003
KMOB 080756Z AUTO 00000KT 10SM CLR 14/10 A3009 RMK AO2 SLP188 T01390100
KMOB 080656Z AUTO 00000KT 10SM CLR 14/09 A3010 RMK AO2 SLP191 T01440094
KMOB 080556Z AUTO 04005KT 10SM CLR 14/09 A3010 RMK AO2 SLP192 T01440094 10233 20139 402670117 58002
KMOB 080456Z 05005KT 10SM CLR 15/10 A3011 RMK AO2 SLP195 T01500100
KMOB 080356Z 00000KT 10SM CLR 15/11 A3011 RMK AO2 SLP193 T01500106
KMOB 080256Z 00000KT 10SM CLR 15/10 A3011 RMK AO2 SLP194 T01500100 53012